Time;durP1;ratioP1;P1;durP2;ratioP2;P2;SDS_P1;SDS_P2;PMS_P1;PMS_P2;Temp;Humidity;BMP_temperature;BMP_pressure;BME280_temperature;BME280_humidity;BME280_pressure;Samples;Min_cycle;Max_cycle;Signal;HPM_P1;HPM_P2
2023/09/14 00:00:30;;;;;;;10.90;3.40;;;;;;;20.25;39.97;94053.13;4994967;28;20038;-80
2023/09/14 00:02:55;;;;;;;9.35;3.10;;;;;;;20.20;40.12;94042.66;4995538;28;20558;-80
2023/09/14 00:05:21;;;;;;;12.27;4.15;;;;;;;20.18;40.41;94047.66;4976179;28;20116;-80
2023/09/14 00:07:46;;;;;;;5.65;3.45;;;;;;;20.21;40.35;94046.94;4977420;28;20421;-79
2023/09/14 00:10:12;;;;;;;4.47;3.25;;;;;;;20.07;40.38;94033.22;4971190;28;20048;-79
2023/09/14 00:12:37;;;;;;;4.03;3.00;;;;;;;20.28;40.65;94057.03;4990888;28;20039;-80
2023/09/14 00:15:03;;;;;;;9.23;3.63;;;;;;;20.22;40.66;94053.88;4995117;28;20025;-81
2023/09/14 00:17:28;;;;;;;5.32;3.25;;;;;;;20.14;40.46;94046.81;4991912;28;20038;-78
2023/09/14 00:19:54;;;;;;;8.48;3.75;;;;;;;20.13;40.61;94039.88;4993287;28;20686;-79
2023/09/14 00:22:20;;;;;;;9.20;3.85;;;;;;;20.26;40.94;94057.41;4994134;28;20069;-80
2023/09/14 00:24:45;;;;;;;5.03;3.25;;;;;;;20.23;40.70;94054.66;4995560;28;22148;-80
2023/09/14 00:27:10;;;;;;;6.57;3.53;;;;;;;20.19;40.98;94053.84;4995111;28;20072;-80
2023/09/14 00:29:36;;;;;;;10.85;4.13;;;;;;;20.17;41.44;94068.50;4993534;28;20049;-80
2023/09/14 00:32:01;;;;;;;7.22;3.40;;;;;;;20.13;41.66;94062.25;4995973;28;20042;-80
2023/09/14 00:34:26;;;;;;;12.13;3.80;;;;;;;20.09;41.59;94072.19;4977120;28;20164;-80
2023/09/14 00:36:52;;;;;;;6.40;3.10;;;;;;;20.02;41.67;94076.75;4995690;28;20983;-80
2023/09/14 00:39:17;;;;;;;6.35;3.55;;;;;;;19.96;41.71;94062.00;4995546;28;20025;-80
2023/09/14 00:41:43;;;;;;;5.00;3.78;;;;;;;19.80;42.09;94040.59;4994347;28;20140;-80
2023/09/14 00:44:08;;;;;;;9.63;4.32;;;;;;;19.78;42.08;94040.19;4996400;28;20849;-79
2023/09/14 00:46:34;;;;;;;11.95;4.03;;;;;;;19.85;42.21;94053.00;4989910;28;20426;-80
2023/09/14 00:49:00;;;;;;;6.70;4.40;;;;;;;19.89;42.21;94061.94;4995911;28;20049;-80
2023/09/14 00:51:29;;;;;;;7.40;3.35;;;;;;;19.84;42.31;94060.31;4998485;28;22097;-79
2023/09/14 00:53:56;;;;;;;5.30;3.75;;;;;;;19.75;42.30;94044.38;4998930;28;20115;-80
2023/09/14 00:56:21;;;;;;;7.90;3.50;;;;;;;19.82;42.33;94045.63;5000078;28;20061;-80
2023/09/14 00:58:47;;;;;;;4.47;3.42;;;;;;;19.89;42.32;94057.31;4999743;28;20435;-80
2023/09/14 01:01:14;;;;;;;8.85;3.70;;;;;;;19.84;42.41;94060.31;4995366;28;20049;-81
2023/09/14 01:03:40;;;;;;;7.70;3.67;;;;;;;19.77;42.45;94059.44;4997849;28;20050;-80
2023/09/14 01:06:06;;;;;;;5.47;4.15;;;;;;;19.80;42.34;94067.56;4997032;28;20622;-79
2023/09/14 01:08:32;;;;;;;5.35;3.25;;;;;;;19.68;42.45;94049.69;4999811;28;20085;-81
2023/09/14 01:10:57;;;;;;;8.52;4.00;;;;;;;19.63;41.99;94041.91;4997851;28;20069;-80
2023/09/14 01:13:41;;;;;;;7.60;3.60;;;;;;;19.75;42.15;94046.28;4998676;28;20069;-79
2023/09/14 01:16:55;;;;;;;6.07;3.58;;;;;;;19.78;42.00;94050.19;4995228;28;20542;-80
2023/09/14 01:19:30;;;;;;;8.25;4.18;;;;;;;19.72;42.27;94047.03;4934894;28;20047;-80
2023/09/14 01:21:55;;;;;;;;;;;;;;;19.74;42.27;94045.53;4922310;28;20419;-81
2023/09/14 01:24:32;;;;;;;9.20;4.50;;;;;;;19.70;42.19;94052.78;4974415;28;19925;-80
2023/09/14 01:26:58;;;;;;;12.93;5.35;;;;;;;19.78;41.80;94044.81;4998106;28;20060;-80
2023/09/14 01:29:24;;;;;;;8.63;4.40;;;;;;;19.77;41.88;94041.31;4997291;28;20038;-80
2023/09/14 01:31:49;;;;;;;8.82;3.97;;;;;;;19.70;42.06;94031.22;4996508;28;20556;-80
2023/09/14 01:34:16;;;;;;;20.05;4.20;;;;;;;19.81;41.71;94049.47;4993293;28;20030;-78
2023/09/14 01:36:48;;;;;;;6.55;4.07;;;;;;;19.87;42.23;94058.81;4998307;28;20132;-80
2023/09/14 01:39:15;;;;;;;7.00;3.97;;;;;;;19.83;42.65;94052.59;4995257;28;21054;-81
2023/09/14 01:41:41;;;;;;;8.32;3.60;;;;;;;19.72;43.04;94058.63;4995452;28;20014;-80
2023/09/14 01:44:07;;;;;;;8.43;4.05;;;;;;;19.69;43.15;94063.97;4993925;28;20037;-80
2023/09/14 01:46:33;;;;;;;10.20;3.95;;;;;;;19.72;42.93;94052.44;4998880;28;20510;-80
2023/09/14 01:48:58;;;;;;;8.85;3.92;;;;;;;19.67;43.25;94050.84;4996772;28;20615;-80
2023/09/14 01:51:24;;;;;;;10.63;3.97;;;;;;;19.66;42.91;94053.88;4993897;28;20022;-80
2023/09/14 01:53:49;;;;;;;7.40;3.88;;;;;;;19.64;43.16;94048.09;4996117;28;20038;-80
2023/09/14 01:56:14;;;;;;;10.30;4.68;;;;;;;19.62;43.28;94047.66;4996531;28;20033;-78
2023/09/14 01:58:43;;;;;;;8.77;4.32;;;;;;;19.62;43.23;94053.84;4989474;28;20514;-79
2023/09/14 02:01:08;;;;;;;15.85;4.45;;;;;;;19.65;43.31;94063.91;4997860;28;20533;-78
2023/09/14 02:03:34;;;;;;;9.82;5.03;;;;;;;19.66;43.84;94060.06;4997844;28;20154;-79
2023/09/14 02:06:02;;;;;;;8.15;3.60;;;;;;;19.62;43.80;94067.34;4998724;28;20100;-79
2023/09/14 02:08:31;;;;;;;5.30;3.72;;;;;;;19.57;43.91;94066.88;4998026;28;20030;-79
2023/09/14 02:10:57;;;;;;;8.30;4.07;;;;;;;19.54;43.85;94063.00;4998707;28;20038;-79
2023/09/14 02:13:22;;;;;;;6.65;4.18;;;;;;;19.46;43.99;94053.22;4998070;28;20603;-79
2023/09/14 02:15:49;;;;;;;7.78;4.10;;;;;;;19.54;44.25;94063.00;4994081;28;20572;-78
2023/09/14 02:18:14;;;;;;;6.35;3.45;;;;;;;19.50;43.75;94047.91;4996786;28;20017;-79
2023/09/14 02:20:40;;;;;;;10.95;4.78;;;;;;;19.52;43.91;94062.56;4976107;28;20405;-78
2023/09/14 02:23:08;;;;;;;7.43;5.03;;;;;;;19.34;43.99;94031.81;4977000;28;21095;-78
2023/09/14 02:25:34;;;;;;;10.02;3.80;;;;;;;19.39;43.79;94053.09;4975992;28;20041;-79
2023/09/14 02:27:59;;;;;;;4.68;4.07;;;;;;;19.44;44.08;94052.78;4977750;28;20034;-79
2023/09/14 02:30:27;;;;;;;5.45;3.70;;;;;;;19.38;44.25;94056.94;4977546;28;20158;-78
2023/09/14 02:32:52;;;;;;;6.65;4.28;;;;;;;19.51;44.23;94071.00;4973649;28;20034;-79
2023/09/14 02:35:18;;;;;;;6.90;4.22;;;;;;;19.39;44.12;94050.41;4977840;28;20034;-79
2023/09/14 02:37:44;;;;;;;6.72;3.75;;;;;;;19.49;44.31;94066.00;4975385;28;20061;-79
2023/09/14 02:40:10;;;;;;;7.57;4.25;;;;;;;19.37;44.26;94047.28;4976184;28;20089;-79
2023/09/14 02:42:37;;;;;;;7.70;4.20;;;;;;;19.33;44.30;94049.16;4958118;28;21010;-79
2023/09/14 02:45:03;;;;;;;7.57;4.85;;;;;;;19.37;44.27;94049.97;4976242;28;20045;-80
2023/09/14 02:47:28;;;;;;;7.22;4.10;;;;;;;19.40;44.16;94051.97;4976322;28;20196;-77
2023/09/14 02:49:54;;;;;;;7.55;4.30;;;;;;;19.44;44.20;94052.00;4976063;28;20034;-79
2023/09/14 02:52:19;;;;;;;11.82;4.15;;;;;;;19.42;44.07;94044.28;4978710;28;20116;-79
2023/09/14 02:54:44;;;;;;;14.20;4.70;;;;;;;19.42;44.04;94030.00;4975975;28;20037;-79
2023/09/14 02:57:10;;;;;;;9.77;4.72;;;;;;;19.42;44.22;94033.47;4977866;28;20470;-80
2023/09/14 02:59:35;;;;;;;12.70;4.80;;;;;;;19.49;44.27;94043.63;4976583;28;20153;-80
2023/09/14 03:02:01;;;;;;;10.02;4.63;;;;;;;19.36;44.19;94018.75;4976220;28;20599;-79
2023/09/14 03:04:26;;;;;;;7.47;4.65;;;;;;;19.45;43.75;94038.19;4979796;28;20039;-78
2023/09/14 03:06:53;;;;;;;5.82;4.00;;;;;;;19.44;43.65;94042.00;4973454;28;20395;-79
2023/09/14 03:09:19;;;;;;;5.38;3.78;;;;;;;19.43;43.74;94045.84;4977585;28;20042;-79
2023/09/14 03:11:44;;;;;;;7.50;3.72;;;;;;;19.40;44.02;94051.97;4977992;28;20029;-79
2023/09/14 03:14:11;;;;;;;5.78;4.15;;;;;;;19.36;44.17;94034.19;4977039;28;20034;-78
2023/09/14 03:16:37;;;;;;;5.18;4.03;;;;;;;19.36;44.19;94053.81;4975136;28;20070;-76
2023/09/14 03:19:03;;;;;;;11.07;4.18;;;;;;;19.25;44.09;94031.31;4977442;28;20125;-79
2023/09/14 03:21:28;;;;;;;10.32;4.07;;;;;;;19.33;44.18;94059.94;4973783;28;20026;-75
2023/09/14 03:23:55;;;;;;;7.90;4.43;;;;;;;19.33;44.32;94060.72;4979274;28;20508;-79
2023/09/14 03:26:22;;;;;;;7.72;4.13;;;;;;;19.30;43.92;94052.56;4960577;28;20074;-78
2023/09/14 03:28:50;;;;;;;7.93;4.43;;;;;;;19.38;43.82;94058.84;4979394;28;20097;-79
2023/09/14 03:31:15;;;;;;;7.18;4.47;;;;;;;19.37;43.62;94057.28;4976114;28;20077;-79
2023/09/14 03:33:41;;;;;;;5.20;4.22;;;;;;;19.25;44.03;94042.09;4976854;28;20591;-79
2023/09/14 03:36:07;;;;;;;9.35;5.75;;;;;;;19.40;44.19;94056.56;4976233;28;20085;-79
2023/09/14 03:38:32;;;;;;;8.05;3.70;;;;;;;19.39;44.17;94061.19;4976156;28;20117;-80
2023/09/14 03:40:57;;;;;;;5.78;3.63;;;;;;;19.39;44.05;94058.50;4956711;28;20457;-79
2023/09/14 03:43:23;;;;;;;12.50;4.85;;;;;;;19.11;44.74;94036.47;4956785;28;20639;-80
2023/09/14 03:45:48;;;;;;;12.65;5.70;;;;;;;19.24;44.87;94064.81;4974881;28;20041;-79
2023/09/14 03:48:13;;;;;;;10.23;5.43;;;;;;;19.03;44.98;94029.41;4976828;28;20644;-79
2023/09/14 03:50:39;;;;;;;7.22;4.63;;;;;;;19.24;44.57;94048.63;4973426;28;20041;-79
2023/09/14 03:53:05;;;;;;;5.70;4.45;;;;;;;19.20;44.86;94048.56;4972724;28;20879;-79
2023/09/14 03:55:31;;;;;;;7.50;4.80;;;;;;;19.13;44.77;94053.84;4973658;28;20073;-79
2023/09/14 03:57:57;;;;;;;6.95;4.38;;;;;;;19.16;44.82;94052.34;4974234;28;20038;-79
2023/09/14 04:00:23;;;;;;;9.23;4.45;;;;;;;19.21;44.60;94066.28;4974387;28;20034;-79
2023/09/14 04:02:49;;;;;;;8.60;4.65;;;;;;;19.14;44.91;94060.78;4974918;28;20119;-79
2023/09/14 04:05:15;;;;;;;6.65;4.88;;;;;;;19.12;45.05;94068.47;4975727;28;20703;-78
2023/09/14 04:07:41;;;;;;;6.75;4.40;;;;;;;19.01;45.28;94064.03;4976218;28;20038;-79
2023/09/14 04:10:10;;;;;;;9.07;4.75;;;;;;;19.01;45.11;94066.75;4976029;28;20065;-79
2023/09/14 04:12:42;;;;;;;11.02;5.00;;;;;;;19.10;45.06;94080.75;4975462;28;20096;-79
2023/09/14 04:15:08;;;;;;;10.55;4.13;;;;;;;19.08;45.25;94074.94;4974121;28;20070;-78
2023/09/14 04:17:34;;;;;;;6.07;3.85;;;;;;;18.99;45.07;94066.31;4976644;28;20061;-79
2023/09/14 04:20:01;;;;;;;7.55;4.47;;;;;;;19.07;44.75;94067.97;4973728;28;20563;-79
2023/09/14 04:22:26;;;;;;;14.23;6.05;;;;;;;18.86;44.92;94055.72;4974791;28;20362;-77
2023/09/14 04:24:52;;;;;;;8.48;3.88;;;;;;;19.01;44.88;94070.22;4972761;28;20039;-78
2023/09/14 04:27:17;;;;;;;7.00;4.75;;;;;;;19.12;45.06;94095.41;4959036;28;20462;-79
2023/09/14 04:29:43;;;;;;;8.48;4.30;;;;;;;18.96;45.08;94067.03;4961435;28;20069;-80
2023/09/14 04:32:08;;;;;;;5.75;3.63;;;;;;;19.02;45.13;94071.00;4972140;28;20053;-79
2023/09/14 04:34:34;;;;;;;7.18;4.32;;;;;;;19.06;44.99;94077.22;4977035;28;20034;-79
2023/09/14 04:36:59;;;;;;;4.60;4.15;;;;;;;19.04;45.56;94082.19;4974481;28;20042;-79
2023/09/14 04:39:26;;;;;;;8.00;4.30;;;;;;;19.04;45.53;94092.97;4974979;28;20030;-78
2023/09/14 04:41:51;;;;;;;6.65;4.38;;;;;;;19.07;45.82;94093.00;4976466;28;20033;-81
2023/09/14 04:44:16;;;;;;;10.80;4.68;;;;;;;19.04;45.32;94088.34;4976387;28;20486;-80
2023/09/14 04:46:42;;;;;;;8.60;5.10;;;;;;;19.01;45.59;94080.22;4974609;28;20037;-77
2023/09/14 04:49:07;;;;;;;5.78;4.30;;;;;;;19.03;45.71;94086.00;4974081;28;20518;-79
2023/09/14 04:51:35;;;;;;;9.60;4.45;;;;;;;19.05;45.95;94087.22;4971820;28;20168;-77
2023/09/14 04:54:02;;;;;;;6.20;4.22;;;;;;;19.01;46.05;94085.59;4959130;28;20042;-77
2023/09/14 04:56:27;;;;;;;9.48;4.18;;;;;;;19.11;46.14;94076.91;4975339;28;20031;-78
2023/09/14 04:58:53;;;;;;;9.48;4.80;;;;;;;19.15;46.21;94093.94;4977304;28;20113;-77
2023/09/14 05:01:18;;;;;;;11.82;4.63;;;;;;;19.11;46.37;94080.41;4978692;28;20050;-78
2023/09/14 05:03:45;;;;;;;13.10;5.10;;;;;;;19.11;46.88;94090.41;4981912;28;20402;-76
2023/09/14 05:06:10;;;;;;;8.88;4.97;;;;;;;19.17;46.86;94092.41;4983742;28;20045;-77
2023/09/14 05:08:36;;;;;;;14.48;5.20;;;;;;;19.23;46.32;94096.38;4994465;28;20542;-78
2023/09/14 05:11:03;;;;;;;7.80;4.55;;;;;;;19.23;46.68;94093.69;4996604;28;20489;-78
2023/09/14 05:13:29;;;;;;;10.55;4.65;;;;;;;19.29;46.87;94105.72;4994626;28;20033;-74
2023/09/14 05:15:54;;;;;;;7.47;4.00;;;;;;;19.39;46.16;94101.63;4978711;28;20045;-78
2023/09/14 05:18:20;;;;;;;13.55;5.72;;;;;;;19.46;45.73;94096.38;4991150;28;20034;-77
2023/09/14 05:20:48;;;;;;;16.20;5.38;;;;;;;19.49;45.28;94087.56;4987957;28;20054;-78
2023/09/14 05:23:13;;;;;;;15.80;7.05;;;;;;;19.57;44.41;94083.84;4984312;28;20065;-77
2023/09/14 05:25:40;;;;;;;10.93;5.35;;;;;;;19.69;44.50;94097.13;4987176;28;20700;-79
2023/09/14 05:28:06;;;;;;;20.85;6.32;;;;;;;19.74;44.19;94094.13;4983959;28;20461;-77
2023/09/14 05:30:32;;;;;;;18.95;6.35;;;;;;;19.76;44.61;94085.63;4994651;28;20053;-78
2023/09/14 05:32:58;;;;;;;16.73;6.97;;;;;;;19.82;45.02;94094.22;4992782;28;20021;-77
2023/09/14 05:35:23;;;;;;;16.83;7.22;;;;;;;19.93;43.44;94095.13;4996727;28;20038;-78
2023/09/14 05:37:49;;;;;;;28.92;7.15;;;;;;;20.07;43.77;94098.81;4997188;28;20500;-78
2023/09/14 05:40:14;;;;;;;24.33;6.50;;;;;;;19.98;44.49;94084.03;4996037;28;20447;-77
2023/09/14 05:42:40;;;;;;;20.88;7.97;;;;;;;20.03;45.05;94083.72;4995612;28;20058;-78
2023/09/14 05:45:07;;;;;;;18.38;7.63;;;;;;;20.07;45.31;94089.94;4995115;28;20029;-78
2023/09/14 05:47:36;;;;;;;27.27;9.18;;;;;;;20.03;45.05;94081.00;4992285;28;20562;-77
2023/09/14 05:50:03;;;;;;;11.27;6.93;;;;;;;20.10;45.23;94097.28;4995681;28;20086;-78
2023/09/14 05:52:30;;;;;;;15.77;7.22;;;;;;;20.10;44.90;94089.97;4998044;28;20034;-77
2023/09/14 05:54:55;;;;;;;15.57;7.32;;;;;;;20.15;44.50;94096.97;4977228;28;20060;-78
2023/09/14 05:57:20;;;;;;;20.40;7.32;;;;;;;20.28;44.31;94106.44;4993748;28;20473;-78
2023/09/14 05:59:46;;;;;;;15.40;7.50;;;;;;;20.24;44.15;94094.78;4996972;28;20068;-79
2023/09/14 06:02:11;;;;;;;18.20;7.20;;;;;;;20.36;43.49;94101.88;4976234;28;20053;-78
2023/09/14 06:04:37;;;;;;;14.80;6.90;;;;;;;20.31;43.82;94100.28;4999554;28;20077;-78
2023/09/14 06:07:03;;;;;;;16.80;8.13;;;;;;;20.36;44.04;94099.19;4997577;28;20045;-78
2023/09/14 06:09:32;;;;;;;21.65;8.02;;;;;;;20.36;44.41;94091.09;4980061;28;20026;-76
2023/09/14 06:11:58;;;;;;;18.50;7.63;;;;;;;20.37;44.59;94085.31;4991839;28;20117;-78
2023/09/14 06:14:23;;;;;;;23.10;8.45;;;;;;;20.36;44.53;94086.47;4995986;28;20221;-78
2023/09/14 06:16:49;;;;;;;19.10;7.63;;;;;;;20.49;44.12;94079.66;4986372;28;20510;-78
2023/09/14 06:19:14;;;;;;;18.50;7.80;;;;;;;20.56;43.79;94085.16;4997325;28;20030;-77
2023/09/14 06:21:40;;;;;;;22.35;8.32;;;;;;;20.53;44.25;94072.38;4996724;28;20496;-78
2023/09/14 06:24:06;;;;;;;17.73;7.68;;;;;;;20.62;44.67;94087.53;4995189;28;20626;-78
2023/09/14 06:26:31;;;;;;;14.65;7.78;;;;;;;20.45;44.59;94072.66;4997305;28;20040;-78
2023/09/14 06:28:57;;;;;;;13.40;7.55;;;;;;;20.68;43.86;94086.81;4994670;28;20760;-78
2023/09/14 06:31:23;;;;;;;16.25;8.52;;;;;;;20.80;43.75;94096.59;4983656;28;20612;-78
2023/09/14 06:33:49;;;;;;;24.40;8.13;;;;;;;20.76;43.74;94093.09;4997805;28;20592;-78
2023/09/14 06:36:18;;;;;;;11.82;7.65;;;;;;;20.81;44.06;94090.03;4996459;28;20639;-78
2023/09/14 06:38:44;;;;;;;15.50;7.32;;;;;;;20.91;43.57;94109.13;4969288;28;20038;-79
2023/09/14 06:41:09;;;;;;;21.85;8.50;;;;;;;21.02;43.49;94111.94;4995436;28;20046;-79
2023/09/14 06:43:35;;;;;;;15.05;6.97;;;;;;;21.02;43.99;94106.50;4995604;28;20049;-76
2023/09/14 06:46:00;;;;;;;22.35;8.95;;;;;;;21.03;43.58;94102.63;4996631;28;20037;-79
2023/09/14 06:48:26;;;;;;;21.58;8.68;;;;;;;21.19;43.01;94124.81;4994856;28;20037;-75
2023/09/14 06:50:51;;;;;;;24.00;9.55;;;;;;;21.06;43.46;94123.56;4996818;28;20025;-79
2023/09/14 06:53:17;;;;;;;25.58;8.32;;;;;;;20.85;43.55;94113.25;4992110;28;21041;-78
2023/09/14 06:55:42;;;;;;;19.40;8.38;;;;;;;21.08;42.79;94115.81;4991801;28;20041;-76
2023/09/14 06:58:08;;;;;;;22.15;8.93;;;;;;;21.28;41.93;94122.59;4987813;28;21223;-78
2023/09/14 07:00:35;;;;;;;23.33;8.93;;;;;;;21.30;41.69;94112.19;4990752;28;20069;-78
2023/09/14 07:03:02;;;;;;;21.70;8.55;;;;;;;21.27;42.73;94106.72;4995891;28;20048;-79
2023/09/14 07:05:30;;;;;;;20.00;9.73;;;;;;;21.28;41.95;94116.41;4992882;28;20034;-78
2023/09/14 07:07:55;;;;;;;28.10;9.80;;;;;;;21.37;41.35;94133.88;4992612;28;20560;-79
2023/09/14 07:10:21;;;;;;;20.30;9.23;;;;;;;21.42;41.77;94127.34;4991874;28;20038;-78
2023/09/14 07:12:48;;;;;;;22.17;9.30;;;;;;;21.19;42.88;94121.34;4995860;28;20489;-78
2023/09/14 07:15:14;;;;;;;16.10;9.05;;;;;;;21.18;43.04;94115.16;4994340;28;20104;-78
2023/09/14 07:17:39;;;;;;;18.92;9.55;;;;;;;21.45;42.75;94135.50;4995032;28;20033;-77
2023/09/14 07:20:06;;;;;;;17.35;8.98;;;;;;;21.60;42.40;94124.81;4993468;28;20384;-79
2023/09/14 07:22:31;;;;;;;27.58;9.40;;;;;;;21.65;41.78;94122.53;4994526;28;20161;-78
2023/09/14 07:24:57;;;;;;;25.00;9.35;;;;;;;21.75;41.07;94121.06;4990401;28;20058;-79
2023/09/14 07:27:24;;;;;;;22.15;9.38;;;;;;;21.84;41.60;94130.41;4996681;28;20022;-78
2023/09/14 07:29:49;;;;;;;14.90;9.45;;;;;;;21.74;41.05;94100.56;4990756;28;20113;-79
2023/09/14 07:32:15;;;;;;;21.00;9.50;;;;;;;21.87;41.29;94124.22;4984906;28;20590;-79
2023/09/14 07:34:40;;;;;;;19.48;9.82;;;;;;;21.98;40.90;94134.34;4968587;28;20037;-77
2023/09/14 07:37:06;;;;;;;17.02;10.05;;;;;;;22.03;40.17;94136.72;4976245;28;20053;-77
2023/09/14 07:39:31;;;;;;;16.02;10.02;;;;;;;22.03;40.18;94134.00;4986314;28;20080;-77
2023/09/14 07:41:57;;;;;;;22.50;9.02;;;;;;;22.01;40.72;94128.97;4985318;28;20033;-79
2023/09/14 07:44:23;;;;;;;20.30;9.00;;;;;;;22.10;41.35;94132.09;4985980;28;20041;-78
2023/09/14 07:46:48;;;;;;;23.40;9.73;;;;;;;22.15;40.95;94129.03;4965624;28;20505;-76
2023/09/14 07:49:14;;;;;;;20.05;9.93;;;;;;;22.00;41.01;94127.41;4985102;28;20034;-79
2023/09/14 07:51:39;;;;;;;17.40;9.23;;;;;;;21.97;40.64;94122.75;4985475;28;20038;-80
2023/09/14 07:54:05;;;;;;;18.25;9.30;;;;;;;22.23;40.57;94144.22;4987324;28;20029;-78
2023/09/14 07:56:30;;;;;;;20.15;8.95;;;;;;;22.33;40.20;94144.66;4969647;28;20473;-78
2023/09/14 07:58:56;;;;;;;22.38;9.25;;;;;;;22.22;40.66;94139.19;4985880;28;20918;-79
2023/09/14 08:01:22;;;;;;;27.75;10.45;;;;;;;22.37;40.41;94135.38;4987056;28;20194;-78
2023/09/14 08:03:48;;;;;;;21.60;8.30;;;;;;;22.25;39.65;94112.09;4986510;28;20053;-78
2023/09/14 08:06:15;;;;;;;19.17;11.13;;;;;;;22.28;40.36;94137.66;4993123;28;20017;-78
2023/09/14 08:08:40;;;;;;;16.90;9.43;;;;;;;22.29;39.87;94131.84;4992259;28;20029;-78
2023/09/14 08:11:06;;;;;;;22.20;11.45;;;;;;;22.03;40.72;94126.66;4970467;28;20525;-78
2023/09/14 08:13:32;;;;;;;18.35;10.55;;;;;;;22.23;39.87;94113.66;4984383;28;20403;-78
2023/09/14 08:16:03;;;;;;;20.55;9.18;;;;;;;22.34;39.81;94116.41;4991430;28;20133;-79
2023/09/14 08:18:29;;;;;;;24.20;8.18;;;;;;;22.50;39.74;94123.06;4992095;28;20420;-75
2023/09/14 08:20:55;;;;;;;13.05;8.10;;;;;;;22.57;39.91;94123.09;4996121;28;20053;-79
2023/09/14 08:23:20;;;;;;;25.23;9.93;;;;;;;22.52;39.24;94104.47;4995297;28;20550;-79
2023/09/14 08:25:46;;;;;;;16.73;8.63;;;;;;;22.63;38.93;94110.69;4991512;28;20038;-79
2023/09/14 08:28:19;;;;;;;24.73;9.55;;;;;;;22.74;38.54;94122.38;4976301;28;20037;-80
2023/09/14 08:30:46;;;;;;;28.85;9.20;;;;;;;22.81;38.96;94127.03;4991358;28;20122;-78
2023/09/14 08:33:12;;;;;;;24.95;8.35;;;;;;;22.84;38.50;94126.25;4994773;28;20040;-78
2023/09/14 08:35:38;;;;;;;21.10;8.32;;;;;;;22.59;37.87;94087.44;4993635;28;20022;-78
2023/09/14 08:38:05;;;;;;;23.55;9.45;;;;;;;22.74;38.66;94118.88;4996478;28;20044;-79
2023/09/14 08:40:31;;;;;;;20.10;8.80;;;;;;;22.62;38.64;94094.84;4992063;28;20046;-79
2023/09/14 08:43:00;;;;;;;19.40;8.57;;;;;;;22.64;38.55;94111.47;4993462;28;20034;-78
2023/09/14 08:45:27;;;;;;;16.13;8.90;;;;;;;22.70;38.35;94112.66;4993887;28;20064;-78
2023/09/14 08:47:53;;;;;;;21.23;8.95;;;;;;;22.80;38.83;94120.06;4994463;28;20697;-78
2023/09/14 08:50:22;;;;;;;21.02;8.07;;;;;;;22.87;39.16;94114.69;4990644;28;20499;-79
2023/09/14 08:52:48;;;;;;;15.65;7.47;;;;;;;22.89;39.45;94106.94;4994372;28;20042;-78
2023/09/14 08:55:20;;;;;;;13.30;7.82;;;;;;;22.93;38.53;94105.00;4992143;28;20037;-79
2023/09/14 08:57:47;;;;;;;19.35;7.35;;;;;;;23.01;39.07;94100.38;4996302;28;20081;-80
2023/09/14 09:00:18;;;;;;;22.73;8.43;;;;;;;23.08;39.05;94095.75;4978572;28;20681;-77
2023/09/14 09:02:52;;;;;;;21.02;8.25;;;;;;;23.17;38.96;94098.09;4994830;28;20054;-79
2023/09/14 09:05:18;;;;;;;21.98;7.93;;;;;;;23.29;38.80;94089.56;4993831;28;20073;-79
2023/09/14 09:07:45;;;;;;;23.67;7.80;;;;;;;23.31;38.58;94081.03;4994191;28;20513;-79
2023/09/14 09:10:16;;;;;;;11.00;7.05;;;;;;;23.43;38.83;94081.41;4994405;28;20063;-79
2023/09/14 09:12:42;;;;;;;18.77;8.93;;;;;;;23.42;38.69;94070.94;4994463;28;20042;-79
2023/09/14 09:15:09;;;;;;;20.58;8.57;;;;;;;23.41;37.89;94078.34;4994567;28;20125;-78
2023/09/14 09:17:41;;;;;;;21.45;7.90;;;;;;;23.27;38.60;94072.13;4992232;28;20047;-80
2023/09/14 09:20:22;;;;;;;15.80;7.80;;;;;;;23.27;38.38;94064.00;4997607;28;21344;-79
2023/09/14 09:22:50;;;;;;;17.30;7.85;;;;;;;23.32;38.25;94069.03;4970420;28;20038;-79
2023/09/14 09:25:17;;;;;;;11.82;7.55;;;;;;;23.50;38.58;94045.41;4976559;28;20038;-79
2023/09/14 09:27:43;;;;;;;23.55;7.55;;;;;;;23.71;37.35;94047.31;4973992;28;20039;-79
2023/09/14 09:30:09;;;;;;;14.20;7.70;;;;;;;23.85;38.14;94058.16;4974212;28;20086;-78
2023/09/14 09:32:37;;;;;;;15.75;7.13;;;;;;;23.82;38.03;94050.75;4977494;28;20046;-79
2023/09/14 09:35:23;;;;;;;14.93;6.65;;;;;;;23.92;37.54;94056.19;4995975;28;20141;-77
2023/09/14 09:37:50;;;;;;;18.75;8.05;;;;;;;23.98;37.60;94049.19;4995638;28;20054;-78
2023/09/14 09:40:17;;;;;;;13.20;7.30;;;;;;;24.11;37.40;94054.19;4995681;28;20034;-79
2023/09/14 09:42:43;;;;;;;21.10;7.40;;;;;;;24.18;37.71;94056.91;4980049;28;20061;-79
2023/09/14 09:45:10;;;;;;;16.65;7.78;;;;;;;24.11;38.31;94033.25;4978222;28;20113;-79
2023/09/14 09:47:36;;;;;;;23.63;7.55;;;;;;;24.30;37.41;94043.66;4991814;28;20080;-79
2023/09/14 09:50:07;;;;;;;16.17;6.47;;;;;;;24.38;36.49;94052.56;4979003;28;20064;-78
2023/09/14 09:52:33;;;;;;;16.83;6.68;;;;;;;24.40;36.73;94044.78;4993737;28;20045;-79
2023/09/14 09:54:59;;;;;;;15.80;7.47;;;;;;;24.55;36.47;94054.41;4994427;28;20034;-79
2023/09/14 09:57:31;;;;;;;18.65;7.38;;;;;;;24.48;35.70;94040.88;4996184;28;20072;-79
2023/09/14 09:59:57;;;;;;;12.88;6.07;;;;;;;24.59;35.78;94052.44;5000414;28;20104;-79
2023/09/14 10:02:31;;;;;;;24.10;8.55;;;;;;;24.65;35.61;94056.31;4995370;28;20710;-79
2023/09/14 10:04:58;;;;;;;13.32;7.00;;;;;;;24.59;35.05;94043.53;4996954;28;20057;-79
2023/09/14 10:07:23;;;;;;;19.40;6.88;;;;;;;24.58;35.08;94042.78;4996499;28;20133;-79
2023/09/14 10:09:54;;;;;;;13.35;5.88;;;;;;;24.65;34.85;94033.78;4993964;28;20038;-78
2023/09/14 10:12:24;;;;;;;13.90;6.05;;;;;;;24.58;35.24;94029.19;4993201;28;20030;-78
2023/09/14 10:14:53;;;;;;;18.58;5.28;;;;;;;24.62;34.70;94035.38;4977447;28;20021;-79
2023/09/14 10:17:22;;;;;;;16.90;6.43;;;;;;;24.63;35.08;94033.44;4992801;28;20038;-79
2023/09/14 10:19:48;;;;;;;12.65;6.15;;;;;;;24.66;33.89;94036.13;4986826;28;20828;-78
2023/09/14 10:22:14;;;;;;;11.18;5.80;;;;;;;24.76;34.58;94032.59;4988751;28;20033;-79
2023/09/14 10:24:41;;;;;;;20.20;5.15;;;;;;;24.74;33.85;94024.03;4974269;28;20456;-78
2023/09/14 10:27:08;;;;;;;15.40;4.93;;;;;;;24.88;33.70;94030.59;4989912;28;20042;-79
2023/09/14 10:29:38;;;;;;;11.43;5.07;;;;;;;24.95;33.25;94022.38;4969191;28;20460;-79
2023/09/14 10:32:06;;;;;;;17.20;5.15;;;;;;;24.85;33.28;94016.59;4984644;28;20045;-78
2023/09/14 10:34:34;;;;;;;11.50;5.07;;;;;;;24.78;32.06;94005.00;4991609;28;20056;-77
2023/09/14 10:37:01;;;;;;;10.90;5.13;;;;;;;24.89;32.77;94015.78;4986933;28;20040;-77
2023/09/14 10:39:26;;;;;;;7.20;4.65;;;;;;;24.93;32.15;94011.13;4990630;28;20030;-77
2023/09/14 10:41:52;;;;;;;13.55;5.00;;;;;;;25.00;32.07;94006.38;4986547;28;20037;-77
2023/09/14 10:44:18;;;;;;;13.13;4.97;;;;;;;25.01;32.57;94005.22;4995934;28;20046;-78
2023/09/14 10:46:46;;;;;;;13.88;5.15;;;;;;;24.96;32.39;93994.75;4997153;28;20031;-78
2023/09/14 10:49:12;;;;;;;9.43;3.78;;;;;;;25.02;32.22;94000.56;4993528;28;20041;-77
2023/09/14 10:51:37;;;;;;;7.97;4.90;;;;;;;25.17;31.38;94010.94;4994661;28;20049;-78
2023/09/14 10:54:03;;;;;;;12.15;5.03;;;;;;;25.05;31.78;93983.41;4995868;28;20561;-77
2023/09/14 10:56:33;;;;;;;9.13;4.65;;;;;;;25.26;31.23;93996.88;4973264;28;20506;-75
2023/09/14 10:59:08;;;;;;;9.13;5.05;;;;;;;25.23;31.58;93997.66;4995322;28;20045;-77
2023/09/14 11:01:45;;;;;;;16.02;5.35;;;;;;;25.35;31.56;93991.75;4994051;28;20597;-78
2023/09/14 11:04:17;;;;;;;8.95;4.47;;;;;;;25.47;30.96;93977.63;4992138;28;20061;-77
2023/09/14 11:06:50;;;;;;;10.52;5.15;;;;;;;25.52;31.12;93971.75;4994619;28;20045;-77
2023/09/14 11:09:17;;;;;;;12.70;4.95;;;;;;;25.57;31.22;93979.47;4997803;28;20025;-77
2023/09/14 11:11:44;;;;;;;12.90;4.85;;;;;;;25.62;30.84;93973.59;4997041;28;20022;-77
2023/09/14 11:14:13;;;;;;;10.93;5.07;;;;;;;25.68;30.89;93974.69;4994586;28;20088;-78
2023/09/14 11:16:45;;;;;;;13.70;4.25;;;;;;;25.85;29.92;93966.75;4991571;28;21000;-78
2023/09/14 11:19:10;;;;;;;10.57;4.60;;;;;;;25.92;30.61;93972.13;4980214;28;20103;-78
2023/09/14 11:21:35;;;;;;;6.07;4.72;;;;;;;26.02;31.41;93971.22;4991925;28;20090;-78
2023/09/14 11:24:05;;;;;;;15.30;4.78;;;;;;;26.06;30.91;93970.00;4997473;28;20902;-78
2023/09/14 11:26:44;;;;;;;8.75;4.40;;;;;;;26.24;30.10;93972.53;4991227;28;20782;-78